createdAt,value
2023-02-18T00:01:59.134Z,1.70
2023-02-18T00:04:27.542Z,1.69
2023-02-18T00:06:55.593Z,1.71
2023-02-18T00:09:23.899Z,1.74
2023-02-18T00:11:52.899Z,1.74
2023-02-18T00:14:20.950Z,1.73
2023-02-18T00:16:49.227Z,1.70
2023-02-18T00:19:18.950Z,1.67
2023-02-18T00:21:47.554Z,1.65
2023-02-18T00:24:15.946Z,1.62
2023-02-18T00:26:44.544Z,1.60
2023-02-18T00:29:12.762Z,1.56
2023-02-18T00:31:41.668Z,1.56
2023-02-18T00:34:10.498Z,1.54
2023-02-18T00:36:38.541Z,1.54
2023-02-18T00:39:08.471Z,1.50
2023-02-18T00:41:37.246Z,1.48
2023-02-18T00:44:06.357Z,1.50
2023-02-18T00:46:35.350Z,1.54
2023-02-18T00:49:04.632Z,1.57
2023-02-18T00:51:34.068Z,1.59
2023-02-18T00:54:06.572Z,1.66
2023-02-18T00:56:35.028Z,1.72
2023-02-18T00:59:03.194Z,1.73
2023-02-18T01:01:31.741Z,1.75
2023-02-18T01:04:00.139Z,1.78
2023-02-18T01:06:28.420Z,1.81
2023-02-18T01:08:56.669Z,1.83
2023-02-18T01:11:25.271Z,1.85
2023-02-18T01:13:53.742Z,1.87
2023-02-18T01:16:23.763Z,1.89
2023-02-18T01:18:53.074Z,1.90
2023-02-18T01:21:21.379Z,1.88
2023-02-18T01:23:49.841Z,1.91
2023-02-18T01:26:18.124Z,1.93
2023-02-18T01:28:46.472Z,1.96
2023-02-18T01:31:15.337Z,1.98
2023-02-18T01:33:46.239Z,1.96
2023-02-18T01:36:15.030Z,1.96
2023-02-18T01:38:43.318Z,1.96
2023-02-18T01:41:11.796Z,1.98
2023-02-18T01:43:39.944Z,1.99
2023-02-18T01:46:12.940Z,1.99
2023-02-18T01:48:53.852Z,2.01
2023-02-18T01:51:21.859Z,2.04
2023-02-18T01:54:17.225Z,2.06
2023-02-18T01:56:53.412Z,2.08
2023-02-18T01:59:24.824Z,2.09
2023-02-18T02:01:52.976Z,2.11
2023-02-18T02:04:21.540Z,2.14
2023-02-18T02:06:50.673Z,2.17
2023-02-18T02:09:19.880Z,2.18
2023-02-18T02:12:07.501Z,2.17
2023-02-18T02:14:45.821Z,2.15
2023-02-18T02:17:43.257Z,2.15
2023-02-18T02:20:39.572Z,2.19
2023-02-18T02:23:10.926Z,2.16
2023-02-18T02:25:51.869Z,2.12
2023-02-18T02:28:45.567Z,2.08
2023-02-18T02:31:26.090Z,2.03
2023-02-18T02:34:16.618Z,2.01
2023-02-18T02:37:25.478Z,2.00
2023-02-18T02:40:15.739Z,2.00
2023-02-18T02:43:07.672Z,2.00
2023-02-18T02:45:50.143Z,2.01
2023-02-18T02:48:45.214Z,2.01
2023-02-18T02:51:17.519Z,2.03
2023-02-18T02:53:46.109Z,2.02
2023-02-18T02:56:16.524Z,2.04
2023-02-18T02:58:55.473Z,2.05
2023-02-18T03:01:57.312Z,2.09
2023-02-18T03:04:32.449Z,2.14
2023-02-18T03:07:08.487Z,2.14
2023-02-18T03:09:44.298Z,2.11
2023-02-18T03:12:35.130Z,2.10
2023-02-18T03:15:09.068Z,2.13
2023-02-18T03:17:46.097Z,2.16
2023-02-18T03:20:19.244Z,2.20
2023-02-18T03:22:48.823Z,2.23
2023-02-18T03:25:17.921Z,2.26
2023-02-18T03:27:55.749Z,2.25
2023-02-18T03:30:29.190Z,2.24
2023-02-18T03:33:00.838Z,2.25
2023-02-18T03:35:29.577Z,2.29
2023-02-18T03:38:07.905Z,2.32
2023-02-18T03:40:36.573Z,2.37
2023-02-18T03:43:04.959Z,2.42
2023-02-18T03:45:33.913Z,2.48
2023-02-18T03:48:03.477Z,2.49
2023-02-18T03:50:31.706Z,2.50
2023-02-18T03:52:59.896Z,2.49
2023-02-18T03:55:28.509Z,2.50
2023-02-18T03:57:56.556Z,2.53
2023-02-18T04:00:25.268Z,2.54
2023-02-18T04:02:54.270Z,2.55
2023-02-18T04:05:22.324Z,2.55
2023-02-18T04:07:50.519Z,2.55
2023-02-18T04:10:23.108Z,2.57
2023-02-18T04:12:51.207Z,2.61
2023-02-18T04:15:19.362Z,2.66
2023-02-18T04:17:47.745Z,2.67
2023-02-18T04:20:17.350Z,2.65
2023-02-18T04:22:45.844Z,2.66
2023-02-18T04:25:14.222Z,2.65
2023-02-18T04:27:42.609Z,2.66
2023-02-18T04:30:11.468Z,2.64
2023-02-18T04:32:42.862Z,2.65
2023-02-18T04:35:11.032Z,2.68
2023-02-18T04:37:39.152Z,2.71
2023-02-18T04:40:08.212Z,2.77
2023-02-18T04:42:36.382Z,2.85
2023-02-18T04:45:05.071Z,2.87
2023-02-18T04:47:34.181Z,2.88
2023-02-18T04:50:02.420Z,2.89
2023-02-18T04:52:30.612Z,2.89
2023-02-18T04:54:59.429Z,2.92
2023-02-18T04:57:27.499Z,2.97
2023-02-18T04:59:58.033Z,3.00
2023-02-18T05:02:26.520Z,3.00
2023-02-18T05:04:56.134Z,3.00
2023-02-18T05:07:24.763Z,3.03
2023-02-18T05:09:52.972Z,3.03
2023-02-18T05:12:21.068Z,3.09
2023-02-18T05:14:49.097Z,3.15
2023-02-18T05:17:17.236Z,3.19
2023-02-18T05:19:45.431Z,3.21
2023-02-18T05:22:13.492Z,3.21
2023-02-18T05:24:41.828Z,3.21
2023-02-18T05:27:10.262Z,3.22
2023-02-18T05:29:38.938Z,3.26
2023-02-18T05:32:07.144Z,3.33
2023-02-18T05:34:37.668Z,3.39
2023-02-18T05:37:06.038Z,3.40
2023-02-18T05:39:35.769Z,3.42
2023-02-18T05:42:04.348Z,3.48
2023-02-18T05:44:33.990Z,3.51
2023-02-18T05:47:12.334Z,3.51
2023-02-18T05:49:44.029Z,3.54
2023-02-18T05:52:12.879Z,3.57
2023-02-18T05:54:40.922Z,3.60
2023-02-18T05:57:09.186Z,3.60
2023-02-18T05:59:37.436Z,3.64
2023-02-18T06:02:05.845Z,3.72
2023-02-18T06:04:34.026Z,3.82
2023-02-18T06:07:02.255Z,3.88
2023-02-18T06:09:30.608Z,3.92
2023-02-18T06:12:00.400Z,4.01
2023-02-18T06:14:28.617Z,4.11
2023-02-18T06:17:00.122Z,4.18
2023-02-18T06:19:28.329Z,4.27
2023-02-18T06:21:56.404Z,4.34
2023-02-18T06:24:24.774Z,4.46
2023-02-18T06:26:53.981Z,4.52
2023-02-18T06:29:22.194Z,4.62
2023-02-18T06:31:50.446Z,4.74
2023-02-18T06:34:20.132Z,4.84
2023-02-18T06:36:48.426Z,4.96
2023-02-18T06:39:16.710Z,5.10
2023-02-18T06:41:46.114Z,5.20
2023-02-18T06:44:16.992Z,5.30
2023-02-18T06:46:45.235Z,5.39
2023-02-18T06:49:13.854Z,5.49
2023-02-18T06:51:43.230Z,5.59
2023-02-18T06:54:11.419Z,5.71
2023-02-18T06:56:39.505Z,5.84
2023-02-18T06:59:08.555Z,5.98
2023-02-18T07:01:36.589Z,6.08
2023-02-18T07:04:05.536Z,6.11
2023-02-18T07:06:33.811Z,6.13
2023-02-18T07:09:01.899Z,6.14
2023-02-18T07:11:30.197Z,6.17
2023-02-18T07:14:00.028Z,6.20
2023-02-18T07:16:28.426Z,6.20
2023-02-18T07:18:56.723Z,6.22
2023-02-18T07:21:24.846Z,6.24
2023-02-18T07:23:52.999Z,6.24
2023-02-18T07:26:21.098Z,6.25
2023-02-18T07:28:52.004Z,6.31
2023-02-18T07:31:21.211Z,6.42
2023-02-18T07:33:49.297Z,6.52
2023-02-18T07:36:17.408Z,6.61
2023-02-18T07:38:45.588Z,6.69
2023-02-18T07:41:19.043Z,6.68
2023-02-18T07:43:47.753Z,6.65
2023-02-18T07:46:17.078Z,6.63
2023-02-18T07:48:45.376Z,6.62
2023-02-18T07:51:13.955Z,6.63
2023-02-18T07:53:43.213Z,6.62
2023-02-18T07:56:12.178Z,6.61
2023-02-18T07:58:40.539Z,6.60
2023-02-18T08:01:13.195Z,6.64
2023-02-18T08:03:41.701Z,6.68
2023-02-18T08:06:20.319Z,6.69
2023-02-18T08:08:48.663Z,6.70
2023-02-18T08:11:19.443Z,6.71
2023-02-18T08:13:49.284Z,6.71
2023-02-18T08:16:18.534Z,6.71
2023-02-18T08:18:48.070Z,6.70
2023-02-18T08:21:17.212Z,6.70
2023-02-18T08:23:45.375Z,6.73
2023-02-18T08:26:13.761Z,6.86
2023-02-18T08:28:45.393Z,7.02
2023-02-18T08:31:25.756Z,7.15
2023-02-18T08:33:55.375Z,7.24
2023-02-18T08:36:23.748Z,7.32
2023-02-18T08:38:52.483Z,7.41
2023-02-18T08:41:21.022Z,7.42
2023-02-18T08:43:49.392Z,7.44
2023-02-18T08:46:25.258Z,7.42
2023-02-18T08:49:01.529Z,7.44
2023-02-18T08:51:30.320Z,7.50
2023-02-18T08:53:58.720Z,7.60
2023-02-18T08:56:28.113Z,7.69
2023-02-18T08:58:56.593Z,7.78
2023-02-18T09:01:24.797Z,7.86
2023-02-18T09:04:03.773Z,7.90
2023-02-18T09:06:31.881Z,7.91
2023-02-18T09:09:00.262Z,7.91
2023-02-18T09:11:28.939Z,7.88
2023-02-18T09:13:57.643Z,7.85
2023-02-18T09:16:27.148Z,7.88
2023-02-18T09:18:56.361Z,7.90
2023-02-18T09:21:24.877Z,7.94
2023-02-18T09:23:53.729Z,7.95
2023-02-18T09:26:23.266Z,7.90
2023-02-18T09:28:52.141Z,7.84
2023-02-18T09:31:24.961Z,7.78
2023-02-18T09:33:58.677Z,7.74
2023-02-18T09:36:27.518Z,7.71
2023-02-18T09:38:55.900Z,7.75
2023-02-18T09:41:41.475Z,7.83
2023-02-18T09:44:17.386Z,7.93
2023-02-18T09:46:53.322Z,8.05
2023-02-18T09:49:26.727Z,8.16
2023-02-18T09:51:55.586Z,8.21
2023-02-18T09:54:23.859Z,8.27
2023-02-18T09:56:52.126Z,8.33
2023-02-18T09:59:21.543Z,8.37
2023-02-18T10:01:52.335Z,8.37
2023-02-18T10:04:30.913Z,8.36
2023-02-18T10:06:59.356Z,8.31
2023-02-18T10:09:32.299Z,8.30
2023-02-18T10:12:17.730Z,8.32
2023-02-18T10:14:59.609Z,8.37
2023-02-18T10:17:31.195Z,8.39
2023-02-18T10:20:00.060Z,8.42
2023-02-18T10:22:29.590Z,8.45
2023-02-18T10:25:03.152Z,8.48
2023-02-18T10:27:33.400Z,8.53
2023-02-18T10:30:37.564Z,8.58
2023-02-18T10:33:28.182Z,8.60
2023-02-18T10:36:16.234Z,8.55
2023-02-18T10:39:07.062Z,8.52
2023-02-18T10:41:51.583Z,8.56
2023-02-18T10:44:43.256Z,8.64
2023-02-18T10:47:17.661Z,8.72
2023-02-18T10:50:02.071Z,8.74
2023-02-18T10:52:33.404Z,8.70
2023-02-18T10:55:07.313Z,8.64
2023-02-18T10:57:49.858Z,8.63
2023-02-18T11:00:28.982Z,8.73
2023-02-18T11:03:23.941Z,8.83
2023-02-18T11:05:53.719Z,8.92
2023-02-18T11:08:25.890Z,8.96
2023-02-18T11:10:54.204Z,8.97
2023-02-18T11:13:31.951Z,8.98
2023-02-18T11:16:06.542Z,8.96
2023-02-18T11:18:38.776Z,8.92
2023-02-18T11:21:21.573Z,8.87
2023-02-18T11:23:52.148Z,8.83
2023-02-18T11:26:40.518Z,8.81
2023-02-18T11:29:25.581Z,8.80
2023-02-18T11:31:55.292Z,8.78
2023-02-18T11:34:26.599Z,8.77
2023-02-18T11:36:54.755Z,8.82
2023-02-18T11:39:29.271Z,8.87
2023-02-18T11:42:00.198Z,8.95
2023-02-18T11:44:39.158Z,9.01
2023-02-18T11:47:13.537Z,9.07
2023-02-18T11:49:43.001Z,9.11
2023-02-18T11:52:16.562Z,9.15
2023-02-18T11:55:03.019Z,9.09
2023-02-18T11:57:32.627Z,8.95
2023-02-18T12:00:00.866Z,8.81
2023-02-18T12:02:35.320Z,8.71
2023-02-18T12:05:24.823Z,8.68
2023-02-18T12:08:03.856Z,8.68
2023-02-18T12:10:38.794Z,8.69
2023-02-18T12:13:28.149Z,8.70
2023-02-18T12:16:09.779Z,8.70
2023-02-18T12:19:02.395Z,8.66
2023-02-18T12:21:55.887Z,8.57
2023-02-18T12:24:32.234Z,8.46
2023-02-18T12:27:18.726Z,8.39
2023-02-18T12:30:09.360Z,8.40
2023-02-18T12:32:46.231Z,8.48
2023-02-18T12:35:23.481Z,8.56
2023-02-18T12:38:15.623Z,8.61
2023-02-18T12:41:05.452Z,8.63
2023-02-18T12:43:43.456Z,8.63
2023-02-18T12:46:18.407Z,8.64
2023-02-18T12:49:05.370Z,8.65
2023-02-18T12:51:46.842Z,8.64
2023-02-18T12:54:35.247Z,8.62
2023-02-18T12:57:20.299Z,8.61
2023-02-18T13:00:00.624Z,8.58
2023-02-18T13:03:05.991Z,8.57
2023-02-18T13:05:49.150Z,8.56
2023-02-18T13:08:31.833Z,8.56
2023-02-18T13:11:20.759Z,8.55
2023-02-18T13:14:27.547Z,8.55
2023-02-18T13:16:57.563Z,8.54
2023-02-18T13:19:28.639Z,8.54
2023-02-18T13:21:59.876Z,8.56
2023-02-18T13:24:35.773Z,8.56
2023-02-18T13:27:24.698Z,8.56
2023-02-18T13:30:30.410Z,8.51
2023-02-18T13:33:01.548Z,8.45
2023-02-18T13:35:59.342Z,8.38
2023-02-18T13:38:51.354Z,8.32
2023-02-18T13:41:20.328Z,8.26
2023-02-18T13:43:48.940Z,8.20
2023-02-18T13:46:19.182Z,8.11
2023-02-18T13:49:01.278Z,8.02
2023-02-18T13:51:33.989Z,7.96
2023-02-18T13:54:17.722Z,7.89
2023-02-18T13:56:54.618Z,7.83
2023-02-18T13:59:43.897Z,7.79
2023-02-18T14:02:21.432Z,7.78
2023-02-18T14:04:55.326Z,7.76
2023-02-18T14:07:41.750Z,7.76
2023-02-18T14:10:19.667Z,7.76
2023-02-18T14:12:56.867Z,7.76
2023-02-18T14:15:24.995Z,7.76
2023-02-18T14:18:15.193Z,7.75
2023-02-18T14:20:51.206Z,7.74
2023-02-18T14:23:22.943Z,7.74
2023-02-18T14:26:14.335Z,7.73
2023-02-18T14:28:49.096Z,7.72
2023-02-18T14:31:30.650Z,7.71
2023-02-18T14:34:07.919Z,7.69
2023-02-18T14:37:08.979Z,7.68
2023-02-18T14:39:56.069Z,7.67
2023-02-18T14:42:36.239Z,7.66
2023-02-18T14:45:10.869Z,7.65
2023-02-18T14:48:04.190Z,7.64
2023-02-18T14:50:35.946Z,7.64
2023-02-18T14:53:10.815Z,7.62
2023-02-18T14:55:41.012Z,7.61
2023-02-18T14:58:32.836Z,7.60
2023-02-18T15:01:13.806Z,7.57
2023-02-18T15:03:42.023Z,7.56
2023-02-18T15:06:37.889Z,7.54
2023-02-18T15:09:18.770Z,7.55
2023-02-18T15:11:55.361Z,7.55
2023-02-18T15:14:25.897Z,7.56
2023-02-18T15:16:57.820Z,7.55
2023-02-18T15:19:27.454Z,7.56
2023-02-18T15:21:56.747Z,7.55
2023-02-18T15:24:27.683Z,7.55
2023-02-18T15:26:57.861Z,7.56
2023-02-18T15:29:34.360Z,7.56
2023-02-18T15:32:20.983Z,7.56
2023-02-18T15:34:53.967Z,7.56
2023-02-18T15:37:23.557Z,7.56
2023-02-18T15:39:52.379Z,7.57
2023-02-18T15:42:32.061Z,7.57
2023-02-18T15:45:15.833Z,7.56
2023-02-18T15:47:49.202Z,7.57
2023-02-18T15:50:22.587Z,7.57
2023-02-18T15:52:50.933Z,7.55
2023-02-18T15:55:32.667Z,7.53
2023-02-18T15:58:02.342Z,7.53
2023-02-18T16:00:33.792Z,7.51
2023-02-18T16:03:13.275Z,7.51
2023-02-18T16:05:44.540Z,7.51
2023-02-18T16:08:26.543Z,7.51
2023-02-18T16:11:03.177Z,7.51
2023-02-18T16:13:31.738Z,7.50
2023-02-18T16:16:01.075Z,7.50
2023-02-18T16:18:36.913Z,7.50
2023-02-18T16:21:17.341Z,7.49
2023-02-18T16:23:56.635Z,7.48
2023-02-18T16:26:40.161Z,7.48
2023-02-18T16:29:14.208Z,7.49
2023-02-18T16:31:43.785Z,7.49
2023-02-18T16:34:12.005Z,7.50
2023-02-18T16:37:00.468Z,7.50
2023-02-18T16:39:33.562Z,7.50
2023-02-18T16:42:01.834Z,7.49
2023-02-18T16:44:30.114Z,7.47
2023-02-18T16:46:58.286Z,7.47
2023-02-18T16:49:26.968Z,7.45
2023-02-18T16:51:58.942Z,7.43
2023-02-18T16:54:28.962Z,7.43
2023-02-18T16:56:57.154Z,7.43
2023-02-18T16:59:26.113Z,7.43
2023-02-18T17:01:56.233Z,7.40
2023-02-18T17:04:24.574Z,7.37
2023-02-18T17:06:52.712Z,7.31
2023-02-18T17:09:23.067Z,7.26
2023-02-18T17:11:52.730Z,7.24
2023-02-18T17:14:21.654Z,7.23
2023-02-18T17:16:53.186Z,7.26
2023-02-18T17:19:26.379Z,7.28
2023-02-18T17:21:55.723Z,7.29
2023-02-18T17:24:24.060Z,7.30
2023-02-18T17:26:52.104Z,7.31
2023-02-18T17:29:20.439Z,7.31
2023-02-18T17:31:51.395Z,7.32
2023-02-18T17:34:24.124Z,7.32
2023-02-18T17:36:53.911Z,7.31
2023-02-18T17:39:22.778Z,7.31
2023-02-18T17:41:51.047Z,7.30
2023-02-18T17:44:21.212Z,7.29
2023-02-18T17:46:52.654Z,7.28
2023-02-18T17:49:22.462Z,7.26
2023-02-18T17:51:50.514Z,7.25
2023-02-18T17:54:20.055Z,7.24
2023-02-18T17:56:48.332Z,7.24
2023-02-18T17:59:16.395Z,7.22
2023-02-18T18:01:44.537Z,7.22
2023-02-18T18:04:17.715Z,7.19
2023-02-18T18:06:47.199Z,7.16
2023-02-18T18:09:15.842Z,7.14
2023-02-18T18:11:45.353Z,7.11
2023-02-18T18:14:15.228Z,7.10
2023-02-18T18:16:43.454Z,7.08
2023-02-18T18:19:11.615Z,7.07
2023-02-18T18:21:39.691Z,7.06
2023-02-18T18:24:11.306Z,7.04
2023-02-18T18:26:41.388Z,7.00
2023-02-18T18:29:09.578Z,6.99
2023-02-18T18:31:37.803Z,6.99
2023-02-18T18:34:05.869Z,6.99
2023-02-18T18:36:34.018Z,7.00
2023-02-18T18:39:02.074Z,7.00
2023-02-18T18:41:30.391Z,7.01
2023-02-18T18:43:59.315Z,7.01
2023-02-18T18:46:27.397Z,7.01
2023-02-18T18:48:55.490Z,6.99
2023-02-18T18:51:31.446Z,6.99
2023-02-18T18:53:59.791Z,6.99
2023-02-18T18:56:28.238Z,7.00
2023-02-18T18:58:56.449Z,7.01
2023-02-18T19:01:27.417Z,7.04
2023-02-18T19:03:55.741Z,7.06
2023-02-18T19:06:23.908Z,7.07
2023-02-18T19:08:51.938Z,7.08
2023-02-18T19:11:24.285Z,7.08
2023-02-18T19:13:53.196Z,7.09
2023-02-18T19:16:42.976Z,7.08
2023-02-18T19:19:11.458Z,7.08
2023-02-18T19:21:41.936Z,7.08
2023-02-18T19:24:10.663Z,7.08
2023-02-18T19:26:38.788Z,7.08
2023-02-18T19:29:06.839Z,7.08
2023-02-18T19:31:36.633Z,7.07
2023-02-18T19:34:08.789Z,7.05
2023-02-18T19:36:38.890Z,7.05
2023-02-18T19:39:08.996Z,7.07
2023-02-18T19:41:39.197Z,7.07
2023-02-18T19:44:07.769Z,7.08
2023-02-18T19:46:36.319Z,7.07
2023-02-18T19:49:04.411Z,7.08
2023-02-18T19:51:34.194Z,7.08
2023-02-18T19:54:02.263Z,7.08
2023-02-18T19:56:30.475Z,7.08
2023-02-18T19:58:58.792Z,7.08
2023-02-18T20:01:26.879Z,7.09
2023-02-18T20:03:54.957Z,7.09
2023-02-18T20:06:23.342Z,7.08
2023-02-18T20:08:54.822Z,7.08
2023-02-18T20:11:31.228Z,7.09
2023-02-18T20:13:59.967Z,7.09
2023-02-18T20:16:28.044Z,7.10
2023-02-18T20:18:56.814Z,7.11
2023-02-18T20:21:25.544Z,7.12
2023-02-18T20:23:55.695Z,7.11
2023-02-18T20:26:24.203Z,7.10
2023-02-18T20:28:52.347Z,7.08
2023-02-18T20:31:20.725Z,7.06
2023-02-18T20:33:49.040Z,7.03
2023-02-18T20:36:17.265Z,7.00
2023-02-18T20:38:45.437Z,6.98
2023-02-18T20:41:14.691Z,6.96
2023-02-18T20:43:43.796Z,6.93
2023-02-18T20:46:14.385Z,6.90
2023-02-18T20:48:43.401Z,6.90
2023-02-18T20:51:13.845Z,6.89
2023-02-18T20:53:43.068Z,6.90
2023-02-18T20:56:11.250Z,6.91
2023-02-18T20:58:39.801Z,6.91
2023-02-18T21:01:12.772Z,6.91
2023-02-18T21:03:41.476Z,6.88
2023-02-18T21:06:12.124Z,6.85
2023-02-18T21:08:40.864Z,6.81
2023-02-18T21:11:11.967Z,6.78
2023-02-18T21:13:40.211Z,6.74
2023-02-18T21:16:08.987Z,6.69
2023-02-18T21:18:37.635Z,6.64
2023-02-18T21:21:06.565Z,6.60
2023-02-18T21:23:40.478Z,6.57
2023-02-18T21:26:16.767Z,6.55
2023-02-18T21:28:48.914Z,6.53
2023-02-18T21:31:37.958Z,6.52
2023-02-18T21:34:06.641Z,6.51
2023-02-18T21:36:35.737Z,6.50
2023-02-18T21:39:05.748Z,6.49
2023-02-18T21:41:35.205Z,6.48
2023-02-18T21:44:03.900Z,6.46
2023-02-18T21:46:34.371Z,6.45
2023-02-18T21:49:05.909Z,6.44
2023-02-18T21:51:56.605Z,6.42
2023-02-18T21:54:25.904Z,6.39
2023-02-18T21:56:54.240Z,6.38
2023-02-18T21:59:23.161Z,6.38
2023-02-18T22:01:52.609Z,6.37
2023-02-18T22:04:20.705Z,6.38
2023-02-18T22:06:52.749Z,6.36
2023-02-18T22:09:21.158Z,6.35
2023-02-18T22:11:49.176Z,6.35
2023-02-18T22:14:18.131Z,6.35
2023-02-18T22:16:46.428Z,6.36
2023-02-18T22:19:15.860Z,6.36
2023-02-18T22:21:44.072Z,6.35
2023-02-18T22:24:17.046Z,6.35
2023-02-18T22:26:46.893Z,6.34
2023-02-18T22:29:15.658Z,6.33
2023-02-18T22:31:43.789Z,6.32
2023-02-18T22:34:11.792Z,6.33
2023-02-18T22:36:39.880Z,6.32
2023-02-18T22:39:08.529Z,6.31
2023-02-18T22:41:36.724Z,6.29
2023-02-18T22:44:06.822Z,6.28
2023-02-18T22:46:36.767Z,6.27
2023-02-18T22:49:05.995Z,6.26
2023-02-18T22:51:37.840Z,6.24
2023-02-18T22:54:08.460Z,6.25
2023-02-18T22:56:36.821Z,6.24
2023-02-18T22:59:05.249Z,6.25
2023-02-18T23:01:35.586Z,6.26
2023-02-18T23:04:06.353Z,6.27
2023-02-18T23:06:35.104Z,6.27
2023-02-18T23:09:03.886Z,6.26
2023-02-18T23:11:32.304Z,6.27
2023-02-18T23:14:21.446Z,6.26
2023-02-18T23:17:16.657Z,6.24
2023-02-18T23:19:48.438Z,6.23
2023-02-18T23:22:19.377Z,6.22
2023-02-18T23:24:47.489Z,6.21
2023-02-18T23:27:15.871Z,6.20
2023-02-18T23:29:43.862Z,6.20
2023-02-18T23:32:11.914Z,6.20
2023-02-18T23:34:39.954Z,6.20
2023-02-18T23:37:09.751Z,6.20
2023-02-18T23:39:40.074Z,6.20
2023-02-18T23:42:10.766Z,6.21
2023-02-18T23:44:40.311Z,6.20
2023-02-18T23:47:08.619Z,6.20
2023-02-18T23:49:37.746Z,6.19
2023-02-18T23:52:06.564Z,6.19
2023-02-18T23:54:35.244Z,6.19
2023-02-18T23:57:03.458Z,6.18
2023-02-18T23:59:32.225Z,6.17
